BTEX

 

 

Black Thunder Express - INVENTORY

Station: INVENTORY - T Race

Distance: 1 Miles

Release: 27-Apr-2021 09:25

Weather Release:    Arrival:

Wind at Release:     Wind at Arrival:

Temp at Release: °    Temp at Arrival: °

Lofts: 11

Birds: 40

Clocked: 27

Good Luck to Everyone!
Drops Pos Breeder Pigeon Name Color Sex Ent Arrival Speed To Win Elg Pd
1 S & S - CA 0117-AU21-SAS BB H 1 09:28:46.69 465.834 00:00:00 Yes
2 Digest - MT 0012-AU21-DIGT BB H 1 09:28:46.82 465.567 00:00:00 Yes
3 Life Loft - WA 4406-AU21-CBF BB H 1 09:28:48.40 462.327 00:00:02 Yes
4 S & S - CA 0121-AU21-SAS BB H 2 09:28:49.71 459.710 00:00:03 Yes
5 Dean Farmer - IL 2301-AU21-VITA BB C 1 09:28:50.27 458.572 00:00:04 Yes
6 Digest - MT 0011-AU21-DIGT BB H 2 09:29:01.60 437.086 00:00:15 Yes
7 Paul Meyer - WA 1403-AU21-TCW BC H 1 09:29:02.61 435.249 00:00:16 Yes
8 S & S - CA 0122-AU21-SAS BB H 3 09:29:04.50 431.902 00:00:18 Yes
9 Life Loft - WA 4415-AU21-CBF BCH H 2 09:29:06.71 428.016 00:00:20 Yes
10 Fassio Loft - UT 1097-AU21-SLI BB H 1 09:29:07.09 427.357 00:00:20 Yes
11 S & S - CA 0119-AU21-SAS BB H 4 09:29:08.12 425.601 00:00:21 Yes
12 Digest - MT 0019-AU21-DIGT BBWF H 3 09:29:08.51 424.915 00:00:22 Yes
13 Life Loft - WA 4400-AU21-CBF BCH H 3 09:29:13.01 417.358 00:00:26 Yes
14 Fassio Loft - UT 1061-AU21-SLI BB H 2 09:29:14.22 415.388 00:00:28 Yes
15 Fassio Loft - UT 1116-AU21-SLI DKC H 3 09:29:16.00 412.484 00:00:29 Yes
16 Dean Farmer - IL 2309-AU21-VITA BB H 2 09:29:19.30 407.235 00:00:33 Yes
17 George Scott - UT 0405-AU21-REBW BB H 1 09:30:14.22 336.070 00:01:28 Yes
18 Arc - MI 5307-AU21-ARC BB H 1 09:30:17.56 332.525 00:01:31 Yes
19 Fassio Loft - UT 1066-AU21-SLI BB H 4 09:30:57.20 295.633 00:02:11 Yes
20 Arc - MI 5305-AU21-ARC BC H 2 09:31:08.09 286.879 00:02:21 Yes
21 George Scott - UT 0402-AU21-REBW BB H 2 09:31:15.39 281.307 00:02:29 Yes
22 Digest - MT 0007-AU21-DIGT BB H 4 09:31:59.21 251.896 00:03:13 Yes
23 Life Loft - WA 4421-AU21-CBF BCH H 4 09:32:29.54 234.902 00:03:43 Yes
24 George Scott - UT 0403-AU21-REBW BB H 3 09:33:31.04 206.637 00:04:44 Yes
25 Fassio Loft - UT 1067-AU21-SLI BB H 5 09:35:26.29 168.612 00:06:40 Yes
26 Arc - MI 4019-AU21-ARC BC H 3 09:38:51.74 126.961 00:10:05 Yes
27 Life Loft - WA 4427-AU21-CBF BCH H 5 10:12:13.64 37.267 00:43:27 Yes

There are 27 bird records

Note: These Race Results are unofficial and subject to change until verified by the Race Committee and declared final.